^^
Your Local Weather - Clay, NY Station Historical Data
Daily Summary for January 10, 2017 Units:  English    Metric   Both
« Previous Day
Next Day »
Daily Weekly Monthly Yearly Custom
  High: Low: Average:
Temperature: 34.3 °F 9.2 °F 23.6 °F
Dew Point: 28.1 °F 3.7 °F 16.7 °F
Humidity: 85% 53% 75%
Wind Speed: 9.0mph 0.0mph 3.4mph
Wind Gust: 17.0mph - -
Wind- - SE
Pressure: 30.48 in 29.78 in -
Precipitation: 0.11 in    
Historical Graphs
 
 
Tabular Data for January 10, 2017
Time Temperature Dew Point Pressure Wind Wind Speed Wind Gust Humidity Rainfall Rate (Hourly) solar
00:00 9.8 °F 4.6 °F 30.48 in Calm     79% 0.00 in 0 W/m2
00:06 9.7 °F 4.5 °F 30.48 in Calm     79% 0.00 in 0 W/m2
00:12 9.5 °F 4.6 °F 30.48 in Calm     80% 0.00 in 0 W/m2
00:18 9.5 °F 4.3 °F 30.48 in Calm     79% 0.00 in 0 W/m2
00:24 9.5 °F 4.0 °F 30.47 in Calm   1.0 mph 78% 0.00 in 0 W/m2
00:30 9.2 °F 3.7 °F 30.47 in Calm     78% 0.00 in 0 W/m2
00:36 9.3 °F 4.1 °F 30.47 in Calm     79% 0.00 in 0 W/m2
00:42 9.6 °F 4.4 °F 30.47 in Calm     79% 0.00 in 0 W/m2
00:48 10.0 °F 4.5 °F 30.47 in Calm   1.0 mph 78% 0.00 in 0 W/m2
00:54 10.0 °F 4.5 °F 30.47 in Calm   1.0 mph 78% 0.00 in 0 W/m2
01:00 10.1 °F 4.6 °F 30.47 in Calm     78% 0.00 in 0 W/m2
01:06 10.4 °F 4.9 °F 30.47 in Calm     78% 0.00 in 0 W/m2
01:12 10.2 °F 4.1 °F 30.46 in Calm     76% 0.00 in 0 W/m2
01:18 9.8 °F 4.0 °F 30.46 in Calm   1.0 mph 77% 0.00 in 0 W/m2
01:24 9.5 °F 3.7 °F 30.46 in Calm   1.0 mph 77% 0.00 in 0 W/m2
01:30 9.4 °F 3.9 °F 30.46 in Calm     78% 0.00 in 0 W/m2
01:36 9.4 °F 3.9 °F 30.46 in Calm     78% 0.00 in 0 W/m2
01:42 9.6 °F 4.1 °F 30.46 in Calm   1.0 mph 78% 0.00 in 0 W/m2
01:48 9.8 °F 4.0 °F 30.47 in SSE 1.0 mph 1.0 mph 77% 0.00 in 0 W/m2
01:54 9.7 °F 4.2 °F 30.48 in Calm   1.0 mph 78% 0.00 in 0 W/m2
02:00 9.9 °F 4.4 °F 30.47 in Calm     78% 0.00 in 0 W/m2
02:06 10.2 °F 4.7 °F 30.47 in ENE 1.0 mph 1.0 mph 78% 0.00 in 0 W/m2
02:12 10.5 °F 5.0 °F 30.47 in Calm     78% 0.00 in 0 W/m2
02:18 11.1 °F 5.3 °F 30.48 in Calm   1.0 mph 77% 0.00 in 0 W/m2
02:24 11.8 °F 5.4 °F 30.48 in Calm   1.0 mph 75% 0.00 in 0 W/m2
02:30 12.3 °F 5.6 °F 30.47 in ENE 1.0 mph 2.0 mph 74% 0.00 in 0 W/m2
02:36 12.1 °F 5.4 °F 30.46 in Calm   2.0 mph 74% 0.00 in 0 W/m2
03:12 14.2 °F 6.5 °F 30.46 in ENE 1.0 mph 1.0 mph 71% 0.00 in 0 W/m2
03:18 14.6 °F 6.6 °F 30.45 in ENE 1.0 mph 2.0 mph 70% 0.00 in 0 W/m2
03:24 14.8 °F 6.8 °F 30.45 in ENE 2.0 mph 4.0 mph 70% 0.00 in 0 W/m2
03:30 14.9 °F 6.6 °F 30.45 in ENE 2.0 mph 3.0 mph 69% 0.00 in 0 W/m2
03:36 14.8 °F 6.5 °F 30.45 in East 2.0 mph 3.0 mph 69% 0.00 in 0 W/m2
03:42 14.8 °F 6.5 °F 30.44 in East 2.0 mph 2.0 mph 69% 0.00 in 0 W/m2
03:48 14.8 °F 6.5 °F 30.44 in East 2.0 mph 4.0 mph 69% 0.00 in 0 W/m2
03:54 15.0 °F 6.3 °F 30.44 in East 2.0 mph 2.0 mph 68% 0.00 in 0 W/m2
04:00 15.1 °F 6.8 °F 30.44 in ENE 3.0 mph 3.0 mph 69% 0.00 in 0 W/m2
04:06 15.1 °F 6.4 °F 30.44 in East 3.0 mph 3.0 mph 68% 0.00 in 0 W/m2
04:12 14.8 °F 6.5 °F 30.44 in ENE 3.0 mph 3.0 mph 69% 0.00 in 0 W/m2
04:18 14.5 °F 6.2 °F 30.44 in ENE 2.0 mph 3.0 mph 69% 0.00 in 0 W/m2
04:24 14.3 °F 6.3 °F 30.43 in ENE 2.0 mph 2.0 mph 70% 0.00 in 0 W/m2
04:30 14.4 °F 6.4 °F 30.43 in East 2.0 mph 2.0 mph 70% 0.00 in 0 W/m2
04:36 14.3 °F 6.3 °F 30.43 in ENE 2.0 mph 5.0 mph 70% 0.00 in 0 W/m2
04:42 14.0 °F 6.3 °F 30.43 in East 2.0 mph 2.0 mph 71% 0.00 in 0 W/m2
04:48 13.8 °F 6.4 °F 30.43 in East 1.0 mph 3.0 mph 72% 0.00 in 0 W/m2
04:54 13.9 °F 6.5 °F 30.43 in ESE 2.0 mph 5.0 mph 72% 0.00 in 0 W/m2
05:00 14.0 °F 6.6 °F 30.43 in ENE 2.0 mph 3.0 mph 72% 0.00 in 0 W/m2
05:06 14.1 °F 6.7 °F 30.42 in East 2.0 mph 3.0 mph 72% 0.00 in 0 W/m2
05:12 14.4 °F 7.0 °F 30.43 in East 2.0 mph 2.0 mph 72% 0.00 in 0 W/m2
05:18 14.6 °F 7.2 °F 30.42 in ENE 2.0 mph 2.0 mph 72% 0.00 in 0 W/m2
05:24 14.8 °F 7.4 °F 30.42 in East 2.0 mph 3.0 mph 72% 0.00 in 0 W/m2
05:30 15.0 °F 7.3 °F 30.42 in ENE 3.0 mph 4.0 mph 71% 0.00 in 0 W/m2
05:36 15.2 °F 7.5 °F 30.42 in ENE 3.0 mph 4.0 mph 71% 0.00 in 0 W/m2
05:42 15.3 °F 7.6 °F 30.42 in ENE 3.0 mph 5.0 mph 71% 0.00 in 0 W/m2
05:48 15.4 °F 7.4 °F 30.41 in East 3.0 mph 5.0 mph 70% 0.00 in 0 W/m2
05:54 15.5 °F 7.8 °F 30.41 in East 2.0 mph 3.0 mph 71% 0.00 in 0 W/m2
06:00 15.7 °F 7.6 °F 30.40 in ESE 3.0 mph 3.0 mph 70% 0.00 in 0 W/m2
06:06 15.8 °F 7.7 °F 30.40 in East 3.0 mph 3.0 mph 70% 0.00 in 0 W/m2
06:12 16.0 °F 7.6 °F 30.40 in East 2.0 mph 3.0 mph 69% 0.00 in 0 W/m2
06:18 16.2 °F 7.8 °F 30.39 in ENE 3.0 mph 3.0 mph 69% 0.00 in 0 W/m2
06:24 16.4 °F 8.0 °F 30.39 in ENE 2.0 mph 3.0 mph 69% 0.00 in 0 W/m2
06:30 16.6 °F 8.2 °F 30.39 in East 2.0 mph 3.0 mph 69% 0.00 in 0 W/m2
06:36 16.9 °F 8.2 °F 30.39 in ENE 2.0 mph 3.0 mph 68% 0.00 in 0 W/m2
06:42 17.1 °F 8.0 °F 30.39 in East 2.0 mph 5.0 mph 67% 0.00 in 0 W/m2
06:48 17.2 °F 8.1 °F 30.39 in ENE 2.0 mph 5.0 mph 67% 0.00 in 0 W/m2
06:54 17.4 °F 8.3 °F 30.39 in NE 2.0 mph 6.0 mph 67% 0.00 in 0 W/m2
07:00 17.5 °F 8.4 °F 30.40 in ENE 3.0 mph 4.0 mph 67% 0.00 in 0 W/m2
07:06 17.7 °F 8.6 °F 30.39 in ENE 2.0 mph 4.0 mph 67% 0.00 in 0 W/m2
07:12 17.7 °F 8.6 °F 30.39 in East 2.0 mph 2.0 mph 67% 0.00 in 0 W/m2
07:18 17.8 °F 8.7 °F 30.39 in NE 2.0 mph 5.0 mph 67% 0.00 in 0 W/m2
07:24 17.9 °F 8.8 °F 30.39 in ENE 2.0 mph 3.0 mph 67% 0.00 in 0 W/m2
07:30 18.0 °F 8.9 °F 30.39 in SE 2.0 mph 2.0 mph 67% 0.00 in 0 W/m2
07:36 18.1 °F 9.0 °F 30.39 in ENE 2.0 mph 3.0 mph 67% 0.00 in 0 W/m2
07:42 18.3 °F 9.2 °F 30.40 in ENE 2.0 mph 3.0 mph 67% 0.00 in 0 W/m2
07:48 18.4 °F 9.3 °F 30.40 in NE 1.0 mph 3.0 mph 67% 0.00 in 7 W/m2
07:54 18.4 °F 9.3 °F 30.40 in East 2.0 mph 2.0 mph 67% 0.00 in 9 W/m2
08:00 18.5 °F 10.0 °F 30.39 in ENE 2.0 mph 3.0 mph 69% 0.00 in 11 W/m2
08:06 18.6 °F 9.8 °F 30.39 in ENE 2.0 mph 6.0 mph 68% 0.00 in 12 W/m2
08:12 18.7 °F 10.2 °F 30.40 in East 3.0 mph 5.0 mph 69% 0.00 in 16 W/m2
08:18 18.7 °F 10.2 °F 30.39 in ENE 3.0 mph 5.0 mph 69% 0.00 in 19 W/m2
08:24 18.8 °F 10.0 °F 30.40 in East 3.0 mph 3.0 mph 68% 0.00 in 25 W/m2
08:30 18.9 °F 10.4 °F 30.40 in East 3.0 mph 3.0 mph 69% 0.00 in 28 W/m2
08:36 19.1 °F 10.6 °F 30.39 in East 3.0 mph 5.0 mph 69% 0.00 in 28 W/m2
08:42 19.2 °F 10.7 °F 30.40 in ENE 2.0 mph 4.0 mph 69% 0.00 in 30 W/m2
08:48 19.3 °F 10.8 °F 30.40 in ENE 2.0 mph 4.0 mph 69% 0.00 in 35 W/m2
08:54 19.4 °F 10.9 °F 30.40 in ENE 2.0 mph 3.0 mph 69% 0.00 in 44 W/m2
09:00 19.6 °F 11.1 °F 30.40 in ESE 2.0 mph 3.0 mph 69% 0.00 in 44 W/m2
09:06 19.8 °F 11.3 °F 30.39 in ENE 2.0 mph 3.0 mph 69% 0.00 in 47 W/m2
09:12 20.0 °F 11.1 °F 30.39 in East 2.0 mph 4.0 mph 68% 0.00 in 60 W/m2
09:18 20.3 °F 11.4 °F 30.38 in East 2.0 mph 4.0 mph 68% 0.00 in 79 W/m2
09:24 20.6 °F 11.4 °F 30.38 in East 2.0 mph 3.0 mph 67% 0.00 in 88 W/m2
09:30 21.0 °F 11.8 °F 30.38 in East 2.0 mph 2.0 mph 67% 0.00 in 98 W/m2
09:36 21.6 °F 12.0 °F 30.38 in East 2.0 mph 3.0 mph 66% 0.00 in 104 W/m2
09:42 22.2 °F 12.2 °F 30.37 in East 2.0 mph 2.0 mph 65% 0.00 in 95 W/m2
09:48 23.1 °F 12.0 °F 30.36 in East 2.0 mph 3.0 mph 62% 0.00 in 116 W/m2
09:54 24.0 °F 11.3 °F 30.35 in South 3.0 mph 4.0 mph 58% 0.00 in 127 W/m2
10:00 24.5 °F 11.4 °F 30.35 in ESE 4.0 mph 4.0 mph 57% 0.00 in 125 W/m2
10:06 24.9 °F 11.4 °F 30.36 in SE 4.0 mph 10.0 mph 56% 0.00 in 116 W/m2
10:12 25.1 °F 10.8 °F 30.36 in SSE 4.0 mph 6.0 mph 54% 0.00 in 114 W/m2
10:18 25.4 °F 10.6 °F 30.35 in SSE 4.0 mph 7.0 mph 53% 0.00 in 118 W/m2
10:26 25.5 °F 11.1 °F 30.35 in ESE 4.0 mph 5.0 mph 54% 0.00 in 88 W/m2
10:32 25.7 °F 10.9 °F 30.35 in South 4.0 mph 4.0 mph 53% 0.00 in 83 W/m2
10:38 25.9 °F 11.1 °F 30.34 in SSE 4.0 mph 4.0 mph 53% 0.00 in 95 W/m2
10:46 26.1 °F 11.7 °F 30.33 in SE 4.0 mph 10.0 mph 54% 0.00 in 111 W/m2
10:52 26.2 °F 12.6 °F 30.32 in SSE 5.0 mph 6.0 mph 56% 0.00 in 107 W/m2
10:58 26.0 °F 14.4 °F 30.33 in SSE 5.0 mph 9.0 mph 61% 0.00 in 104 W/m2
11:04 25.6 °F 15.5 °F 30.32 in ESE 5.0 mph 6.0 mph 65% 0.00 in 84 W/m2
11:10 25.1 °F 17.3 °F 30.31 in SE 6.0 mph 6.0 mph 72% 0.00 in 67 W/m2
11:16 24.8 °F 18.6 °F 30.30 in SE 5.0 mph 6.0 mph 77% 0.00 in 65 W/m2
11:22 24.5 °F 19.5 °F 30.30 in SSE 5.0 mph 6.0 mph 81% 0.00 in 63 W/m2
11:28 24.3 °F 19.9 °F 30.29 in SE 7.0 mph 7.0 mph 83% 0.00 in 63 W/m2
11:36 24.0 °F 19.9 °F 30.27 in SSE 6.0 mph 8.0 mph 84% 0.00 in 74 W/m2
11:42 23.8 °F 19.7 °F 30.28 in ESE 3.0 mph 3.0 mph 84% 0.00 in 60 W/m2
11:48 23.7 °F 19.9 °F 30.27 in SE 4.0 mph 4.0 mph 85% 0.00 in 84 W/m2
11:54 23.7 °F 19.9 °F 30.27 in SE 4.0 mph 6.0 mph 85% 0.00 in 83 W/m2
12:00 23.7 °F 19.9 °F 30.27 in ESE 5.0 mph 5.0 mph 85% 0.00 in 86 W/m2
12:06 23.9 °F 20.0 °F 30.27 in SE 4.0 mph 5.0 mph 85% 0.00 in 84 W/m2
12:12 24.0 °F 19.9 °F 30.26 in East 4.0 mph 5.0 mph 84% 0.00 in 72 W/m2
12:18 24.2 °F 20.1 °F 30.25 in NE 4.0 mph 5.0 mph 84% 0.00 in 79 W/m2
12:24 24.4 °F 20.3 °F 30.24 in SE 3.0 mph 3.0 mph 84% 0.00 in 86 W/m2
12:30 24.6 °F 20.2 °F 30.24 in ESE 4.0 mph 4.0 mph 83% 0.00 in 113 W/m2
12:36 25.0 °F 20.3 °F 30.23 in East 4.0 mph 6.0 mph 82% 0.00 in 132 W/m2
12:42 25.7 °F 20.4 °F 30.23 in ESE 3.0 mph 5.0 mph 80% 0.00 in 118 W/m2
12:48 26.3 °F 20.7 °F 30.23 in SSE 4.0 mph 7.0 mph 79% 0.00 in 128 W/m2
12:54 26.7 °F 20.8 °F 30.23 in South 3.0 mph 4.0 mph 78% 0.00 in 114 W/m2
13:00 27.1 °F 20.5 °F 30.22 in SE 3.0 mph 3.0 mph 76% 0.00 in 123 W/m2
13:06 27.4 °F 20.2 °F 30.21 in SSE 5.0 mph 8.0 mph 74% 0.00 in 100 W/m2
13:12 27.7 °F 20.2 °F 30.21 in SE 6.0 mph 6.0 mph 73% 0.00 in 91 W/m2
13:18 27.8 °F 19.9 °F 30.20 in SE 5.0 mph 6.0 mph 72% 0.00 in 86 W/m2
13:24 27.9 °F 20.0 °F 30.20 in South 4.0 mph 5.0 mph 72% 0.00 in 84 W/m2
13:30 28.1 °F 20.2 °F 30.19 in SE 4.0 mph 5.0 mph 72% 0.00 in 72 W/m2
13:36 28.1 °F 19.9 °F 30.18 in SE 4.0 mph 5.0 mph 71% 0.00 in 67 W/m2
13:42 28.2 °F 20.3 °F 30.18 in SSE 4.0 mph 8.0 mph 72% 0.00 in 58 W/m2
13:48 28.4 °F 20.2 °F 30.17 in SSE 5.0 mph 8.0 mph 71% 0.00 in 62 W/m2
13:56 28.6 °F 20.4 °F 30.16 in SSE 6.0 mph 6.0 mph 71% 0.00 in 62 W/m2
14:02 28.7 °F 20.8 °F 30.16 in South 5.0 mph 6.0 mph 72% 0.00 in 51 W/m2
14:08 28.7 °F 20.8 °F 30.16 in South 5.0 mph 13.0 mph 72% 0.00 in 42 W/m2
14:16 28.7 °F 20.8 °F 30.16 in SSE 6.0 mph 6.0 mph 72% 0.00 in 46 W/m2
14:22 28.7 °F 20.8 °F 30.16 in SE 6.0 mph 6.0 mph 72% 0.00 in 49 W/m2
14:28 28.7 °F 21.5 °F 30.16 in South 7.0 mph 7.0 mph 74% 0.00 in 37 W/m2
14:34 28.6 °F 21.7 °F 30.16 in SSE 6.0 mph 8.0 mph 75% 0.00 in 30 W/m2
14:40 28.6 °F 21.7 °F 30.16 in SSE 6.0 mph 6.0 mph 75% 0.00 in 26 W/m2
14:46 28.5 °F 21.9 °F 30.15 in SE 7.0 mph 8.0 mph 76% 0.00 in 23 W/m2
14:52 28.4 °F 22.1 °F 30.15 in SE 7.0 mph 9.0 mph 77% 0.00 in 21 W/m2
14:58 28.3 °F 22.3 °F 30.15 in South 8.0 mph 11.0 mph 78% 0.00 in 19 W/m2
15:06 28.2 °F 22.5 °F 30.14 in SSE 7.0 mph 9.0 mph 79% 0.00 in 18 W/m2
15:12 28.3 °F 22.6 °F 30.13 in SE 8.0 mph 14.0 mph 79% 0.00 in 16 W/m2
15:18 28.4 °F 22.7 °F 30.13 in SE 8.0 mph 14.0 mph 79% 0.00 in 12 W/m2
15:26 28.5 °F 23.1 °F 30.11 in SSE 8.0 mph 8.0 mph 80% 0.00 in 11 W/m2
15:28 28.5 °F 23.1 °F 30.11 in South 9.0 mph 9.0 mph 80% 0.00 in 11 W/m2
15:36 28.5 °F 23.7 °F 30.10 in SSE 7.0 mph 8.0 mph 82% 0.00 in 11 W/m2
15:42 28.7 °F 23.9 °F 30.10 in ENE 8.0 mph 8.0 mph 82% 0.00 in 11 W/m2
15:48 28.9 °F 24.4 °F 30.09 in SE 6.0 mph 8.0 mph 83% 0.00 in 7 W/m2
15:54 29.0 °F 24.5 °F 30.08 in SSE 6.0 mph 10.0 mph 83% 0.00 in 7 W/m2
16:00 29.1 °F 24.6 °F 30.08 in ENE 8.0 mph 8.0 mph 83% 0.00 in 7 W/m2
16:06 29.2 °F 24.7 °F 30.07 in SE 7.0 mph 8.0 mph 83% 0.00 in 5 W/m2
16:12 29.3 °F 25.1 °F 30.06 in SE 6.0 mph 6.0 mph 84% 0.00 in 5 W/m2
16:18 29.3 °F 25.1 °F 30.05 in NE 5.0 mph 6.0 mph 84% 0.00 in 5 W/m2
16:24 29.2 °F 25.0 °F 30.05 in ENE 4.0 mph 7.0 mph 84% 0.00 in 0 W/m2
16:30 29.6 °F 24.8 °F 30.05 in ESE 5.0 mph 5.0 mph 82% 0.00 in 0 W/m2
16:36 29.8 °F 25.0 °F 30.05 in SSE 6.0 mph 12.0 mph 82% 0.00 in 0 W/m2
16:42 30.1 °F 25.0 °F 30.05 in SSE 6.0 mph 7.0 mph 81% 0.00 in 0 W/m2
16:48 30.3 °F 25.2 °F 30.05 in SSE 6.0 mph 10.0 mph 81% 0.00 in 0 W/m2
16:54 30.5 °F 24.5 °F 30.05 in SE 7.0 mph 9.0 mph 78% 0.00 in 0 W/m2
17:00 30.4 °F 25.0 °F 30.04 in South 5.0 mph 5.0 mph 80% 0.00 in 0 W/m2
17:06 30.5 °F 24.1 °F 30.04 in SE 5.0 mph 9.0 mph 77% 0.00 in 0 W/m2
17:12 30.4 °F 24.1 °F 30.04 in SE 5.0 mph 5.0 mph 77% 0.00 in 0 W/m2
17:18 30.4 °F 24.4 °F 30.03 in SSE 3.0 mph 5.0 mph 78% 0.00 in 0 W/m2
17:24 30.5 °F 24.1 °F 30.03 in SE 4.0 mph 9.0 mph 77% 0.00 in 0 W/m2
17:30 30.4 °F 24.4 °F 30.02 in SE 4.0 mph 8.0 mph 78% 0.00 in 0 W/m2
17:36 30.6 °F 24.2 °F 30.02 in SSE 5.0 mph 8.0 mph 77% 0.00 in 0 W/m2
17:42 30.6 °F 24.6 °F 30.02 in South 5.0 mph 6.0 mph 78% 0.00 in 0 W/m2
17:48 30.5 °F 24.1 °F 30.01 in SSE 4.0 mph 6.0 mph 77% 0.00 in 0 W/m2
17:54 30.5 °F 24.5 °F 30.00 in SW 4.0 mph 5.0 mph 78% 0.00 in 0 W/m2
18:00 30.6 °F 24.2 °F 30.00 in SSE 5.0 mph 5.0 mph 77% 0.00 in 0 W/m2
18:06 30.6 °F 24.6 °F 29.99 in SSE 5.0 mph 6.0 mph 78% 0.00 in 0 W/m2
18:12 30.5 °F 24.5 °F 29.99 in ESE 4.0 mph 8.0 mph 78% 0.00 in 0 W/m2
18:18 30.7 °F 24.3 °F 29.99 in SSE 5.0 mph 10.0 mph 77% 0.00 in 0 W/m2
18:24 30.7 °F 24.3 °F 29.99 in SSE 5.0 mph 10.0 mph 77% 0.00 in 0 W/m2
18:30 30.8 °F 24.7 °F 29.98 in SSE 5.0 mph 6.0 mph 78% 0.00 in 0 W/m2
18:36 31.0 °F 24.6 °F 29.98 in SSE 6.0 mph 8.0 mph 77% 0.00 in 0 W/m2
18:42 31.0 °F 24.6 °F 29.98 in South 5.0 mph 6.0 mph 77% 0.00 in 0 W/m2
18:48 31.1 °F 24.7 °F 29.98 in SW 5.0 mph 8.0 mph 77% 0.00 in 0 W/m2
18:54 31.2 °F 25.1 °F 29.99 in SE 5.0 mph 8.0 mph 78% 0.00 in 0 W/m2
19:00 31.2 °F 25.1 °F 29.98 in ESE 4.0 mph 4.0 mph 78% 0.00 in 0 W/m2
19:06 31.3 °F 25.2 °F 29.97 in SSE 5.0 mph 6.0 mph 78% 0.00 in 0 W/m2
19:12 31.3 °F 25.2 °F 29.97 in SSE 5.0 mph 5.0 mph 78% 0.00 in 0 W/m2
19:18 31.3 °F 24.9 °F 29.97 in SSE 4.0 mph 8.0 mph 77% 0.00 in 0 W/m2
19:24 31.3 °F 25.5 °F 29.98 in SSE 5.0 mph 6.0 mph 79% 0.00 in 0 W/m2
19:30 31.1 °F 25.7 °F 29.97 in SSW 6.0 mph 7.0 mph 80% 0.00 in 0 W/m2
19:36 31.0 °F 25.9 °F 29.97 in SSE 7.0 mph 8.0 mph 81% 0.00 in 0 W/m2
19:42 31.0 °F 26.1 °F 29.96 in SE 6.0 mph 8.0 mph 82% 0.00 in 0 W/m2
19:48 30.8 °F 26.2 °F 29.96 in SSE 5.0 mph 8.0 mph 83% 0.00 in 0 W/m2
19:54 30.7 °F 26.1 °F 29.96 in SSE 4.0 mph 5.0 mph 83% 0.00 in 0 W/m2
20:00 30.8 °F 26.0 °F 29.95 in SSE 5.0 mph 8.0 mph 82% 0.00 in 0 W/m2
20:06 31.0 °F 26.1 °F 29.94 in SE 5.0 mph 8.0 mph 82% 0.00 in 0 W/m2
20:12 31.1 °F 26.0 °F 29.94 in SSE 4.0 mph 4.0 mph 81% 0.00 in 0 W/m2
20:18 31.4 °F 25.9 °F 29.93 in SSE 4.0 mph 6.0 mph 80% 0.00 in 0 W/m2
20:24 31.9 °F 26.1 °F 29.92 in South 6.0 mph 11.0 mph 79% 0.00 in 0 W/m2
20:30 31.8 °F 26.0 °F 29.92 in SSE 6.0 mph 6.0 mph 79% 0.00 in 0 W/m2
20:36 31.8 °F 26.3 °F 29.91 in SSE 4.0 mph 8.0 mph 80% 0.00 in 0 W/m2
20:42 31.7 °F 26.2 °F 29.90 in SSE 4.0 mph 6.0 mph 80% 0.00 in 0 W/m2
20:48 31.9 °F 25.8 °F 29.90 in ESE 6.0 mph 17.0 mph 78% 0.00 in 0 W/m2
20:54 31.8 °F 26.0 °F 29.90 in SE 6.0 mph 6.0 mph 79% 0.00 in 0 W/m2
21:00 32.1 °F 26.3 °F 29.90 in SE 5.0 mph 5.0 mph 79% 0.00 in 0 W/m2
21:06 32.4 °F 26.6 °F 29.88 in SSE 5.0 mph 13.0 mph 79% 0.00 in 0 W/m2
21:12 32.7 °F 26.9 °F 29.88 in SSE 6.0 mph 7.0 mph 79% 0.00 in 0 W/m2
21:18 32.6 °F 27.1 °F 29.87 in SE 5.0 mph 7.0 mph 80% 0.00 in 0 W/m2
21:24 32.8 °F 27.3 °F 29.86 in SSW 5.0 mph 7.0 mph 80% 0.00 in 0 W/m2
21:30 32.9 °F 27.7 °F 29.86 in East 6.0 mph 6.0 mph 81% 0.04 in 0 W/m2
21:36 32.9 °F 27.7 °F 29.86 in South 6.0 mph 6.0 mph 81% 0.14 in 0 W/m2
21:42 32.6 °F 27.7 °F 29.87 in South 4.0 mph 4.0 mph 82% 0.09 in 0 W/m2
21:48 32.5 °F 27.6 °F 29.87 in SSE 3.0 mph 7.0 mph 82% 0.09 in 0 W/m2
21:54 32.7 °F 27.5 °F 29.85 in SSE 5.0 mph 9.0 mph 81% 0.06 in 0 W/m2
22:00 32.9 °F 28.0 °F 29.85 in SSE 5.0 mph 8.0 mph 82% 0.06 in 0 W/m2
22:06 33.5 °F 27.7 °F 29.85 in South 6.0 mph 11.0 mph 79% 0.04 in 0 W/m2
22:12 33.5 °F 27.4 °F 29.84 in SSE 7.0 mph 9.0 mph 78% 0.00 in 0 W/m2
22:18 33.6 °F 27.8 °F 29.84 in SE 6.0 mph 9.0 mph 79% 0.00 in 0 W/m2
22:24 33.5 °F 28.0 °F 29.83 in ESE 5.0 mph 8.0 mph 80% 0.00 in 0 W/m2
22:30 33.3 °F 28.1 °F 29.83 in South 3.0 mph 3.0 mph 81% 0.00 in 0 W/m2
22:36 33.2 °F 28.0 °F 29.83 in Calm   3.0 mph 81% 0.00 in 0 W/m2
22:42 33.4 °F 27.9 °F 29.81 in Calm     80% 0.00 in 0 W/m2
22:48 33.5 °F 27.7 °F 29.82 in Calm     79% 0.04 in 0 W/m2
22:54 33.6 °F 27.8 °F 29.83 in Calm     79% 0.04 in 0 W/m2
23:00 33.6 °F 27.8 °F 29.82 in Calm     79% 0.04 in 0 W/m2
23:06 33.6 °F 27.5 °F 29.81 in Calm     78% 0.00 in 0 W/m2
23:12 33.6 °F 27.5 °F 29.81 in Calm     78% 0.00 in 0 W/m2
23:18 33.8 °F 27.4 °F 29.81 in Calm     77% 0.00 in 0 W/m2
23:24 33.8 °F 27.0 °F 29.80 in Calm     76% 0.00 in 0 W/m2
23:30 34.0 °F 27.2 °F 29.81 in Calm     76% 0.00 in 0 W/m2
23:36 33.9 °F 27.1 °F 29.80 in Calm     76% 0.00 in 0 W/m2
23:42 33.9 °F 27.1 °F 29.80 in Calm     76% 0.00 in 0 W/m2
23:48 33.9 °F 27.1 °F 29.80 in Calm     76% 0.00 in 0 W/m2
23:55 34.3 °F 27.2 °F 29.78 in Calm     75% 0.00 in 0 W/m2
Country Meadow, Clay, NY, USA
Compliments of Weather Underground - 2 mb